MI04 weather

Airborn Paraflite Ultralightport
Ithaca, Michigan, United States

Public forecast

Using degrees Fahrenheit for public forecast. Weather courtesy of forecast.io.

METAR (pilot weather report)

Closest report is Gratiot Community Airport, 2.1 nm (3.8 km) WNW. Retrieved 2019/09/21 09:35 UTC (17 minutes ago):

KAMN 210935Z AUTO 00000KT 5SM BR SCT075 16/15 A3014 RMK AO2 T01600150

TAF (pilot weather forecast)

Closest forecast is MBS International Airport, 28.2 nm (52.2 km) ENE. Retrieved 2019/09/21 06:27 UTC (3 hours ago):

TAF KMBS 210524Z 2106/2206 18005KT P6SM SCT050 FM210800 18005KT P6SM BKN060 FM211300 20010KT P6SM SCT040 FM212200 23013KT P6SM VCTS BKN045CB OVC100